Time;durP1;ratioP1;P1;durP2;ratioP2;P2;SDS_P1;SDS_P2;PMS_P1;PMS_P2;Temp;Humidity;BMP_temperature;BMP_pressure;BME280_temperature;BME280_humidity;BME280_pressure;Samples;Min_cycle;Max_cycle;Signal;HPM_P1;HPM_P2
2022/04/09 00:02:12;;;;;;;0.67;0.50;;;;;;;7.36;97.34;94251.53;5044817;28;20217;-68
2022/04/09 00:04:38;;;;;;;0.20;0.20;;;;;;;7.49;97.54;94282.94;5046696;28;20202;-68
2022/04/09 00:07:05;;;;;;;0.20;0.20;;;;;;;7.39;97.51;94297.47;5046255;28;20220;-67
2022/04/09 00:09:32;;;;;;;1.07;0.33;;;;;;;7.44;98.15;94301.09;5046029;28;20248;-68
2022/04/09 00:11:59;;;;;;;0.20;0.20;;;;;;;7.51;97.74;94294.03;5044536;28;20674;-68
2022/04/09 00:14:26;;;;;;;0.20;0.20;;;;;;;7.25;97.34;94285.41;5042297;28;20216;-68
2022/04/09 00:16:52;;;;;;;0.30;0.30;;;;;;;7.32;96.79;94278.34;5041830;28;20221;-68
2022/04/09 00:19:19;;;;;;;0.20;0.20;;;;;;;6.98;96.16;94293.50;5042302;28;20216;-68
2022/04/09 00:21:46;;;;;;;0.20;0.20;;;;;;;6.70;97.33;94316.44;5041501;28;20202;-67
2022/04/09 00:24:13;;;;;;;0.30;0.30;;;;;;;6.58;96.85;94344.22;5045302;28;20205;-68
2022/04/09 00:26:40;;;;;;;0.20;0.20;;;;;;;6.37;98.01;94360.03;5042290;28;20240;-67
2022/04/09 00:29:08;;;;;;;0.30;0.30;;;;;;;6.45;97.75;94391.25;5044860;28;20209;-67
2022/04/09 00:31:34;;;;;;;1.50;0.87;;;;;;;6.09;98.24;94406.38;5045055;28;20292;-67
2022/04/09 00:34:01;;;;;;;0.50;0.20;;;;;;;6.01;98.67;94426.69;5044299;28;20212;-68
2022/04/09 00:36:28;;;;;;;0.30;0.30;;;;;;;5.57;99.13;94441.81;5042991;28;20272;-67
2022/04/09 00:38:54;;;;;;;0.37;0.30;;;;;;;5.54;98.99;94444.03;5041557;28;20201;-68
2022/04/09 00:41:21;;;;;;;0.30;0.30;;;;;;;5.21;99.08;94463.84;5042552;28;20205;-67
2022/04/09 00:43:47;;;;;;;0.30;0.30;;;;;;;4.95;98.21;94510.56;5041809;28;20205;-67
2022/04/09 00:46:15;;;;;;;0.20;0.20;;;;;;;5.37;98.28;94496.72;5043003;28;20220;-67
2022/04/09 00:48:43;;;;;;;0.30;0.30;;;;;;;5.18;99.01;94519.03;5041431;28;20197;-68
2022/04/09 00:51:10;;;;;;;0.20;0.20;;;;;;;5.10;99.95;94521.75;5041929;28;20201;-68
2022/04/09 00:53:41;;;;;;;0.20;0.20;;;;;;;5.26;99.84;94531.97;5040085;28;20194;-67
2022/04/09 00:56:21;;;;;;;0.30;0.30;;;;;;;5.20;97.59;94545.75;5040129;28;20225;-68
2022/04/09 00:58:54;;;;;;;1.70;0.60;;;;;;;5.36;98.35;94558.59;5040734;28;20205;-67
2022/04/09 01:01:24;;;;;;;0.20;0.20;;;;;;;5.35;97.46;94577.06;5041027;28;20220;-68
2022/04/09 01:03:51;;;;;;;0.20;0.20;;;;;;;5.15;96.37;94610.75;5040460;28;20290;-68
2022/04/09 01:06:18;;;;;;;0.20;0.20;;;;;;;4.60;97.50;94621.91;5040075;28;20285;-68
2022/04/09 01:08:44;;;;;;;0.30;0.30;;;;;;;4.59;96.88;94646.38;5040208;28;20193;-67
2022/04/09 01:11:12;;;;;;;0.83;0.40;;;;;;;4.60;97.11;94666.25;5041251;28;20205;-67
2022/04/09 01:13:38;;;;;;;0.30;0.30;;;;;;;4.81;96.91;94655.91;5040810;28;21085;-68
2022/04/09 01:16:06;;;;;;;0.30;0.30;;;;;;;4.71;96.82;94657.97;5041948;28;20225;-68
2022/04/09 01:18:34;;;;;;;0.20;0.20;;;;;;;4.82;97.17;94671.38;5042191;28;20212;-67
2022/04/09 01:21:02;;;;;;;0.20;0.20;;;;;;;4.53;96.47;94673.97;5041654;28;20201;-68
2022/04/09 01:23:31;;;;;;;0.20;0.20;;;;;;;4.59;96.96;94685.50;5041408;28;20216;-67
2022/04/09 01:26:00;;;;;;;0.30;0.30;;;;;;;4.60;97.73;94689.72;5044400;28;20221;-67
2022/04/09 01:28:27;;;;;;;0.20;0.20;;;;;;;4.62;97.94;94716.44;5044550;28;20219;-67
2022/04/09 01:30:54;;;;;;;0.20;0.20;;;;;;;4.57;98.17;94730.00;5044369;28;20197;-68
2022/04/09 01:33:22;;;;;;;0.30;0.30;;;;;;;4.72;98.53;94745.69;5043419;28;20673;-68
2022/04/09 01:35:49;;;;;;;0.20;0.20;;;;;;;4.48;98.57;94751.94;5042625;28;20239;-67
2022/04/09 01:38:15;;;;;;;0.30;0.30;;;;;;;4.52;98.18;94762.81;5042623;28;20855;-67
2022/04/09 01:40:43;;;;;;;0.20;0.20;;;;;;;4.63;98.09;94776.22;5043609;28;20213;-67
2022/04/09 01:43:10;;;;;;;0.30;0.30;;;;;;;4.49;97.71;94787.47;5042179;28;20739;-67
2022/04/09 01:45:37;;;;;;;0.30;0.30;;;;;;;4.63;97.82;94809.34;5042293;28;20194;-67
2022/04/09 01:48:04;;;;;;;0.23;0.23;;;;;;;4.53;98.19;94811.38;5044193;28;20570;-67
2022/04/09 01:50:32;;;;;;;0.30;0.30;;;;;;;4.48;98.09;94818.91;5043967;28;20193;-67
2022/04/09 01:52:59;;;;;;;0.47;0.47;;;;;;;4.44;97.76;94821.09;5043870;28;20208;-67
2022/04/09 01:55:26;;;;;;;0.30;0.30;;;;;;;4.50;97.95;94827.38;5045384;28;20271;-67
2022/04/09 01:57:54;;;;;;;0.30;0.30;;;;;;;4.82;97.75;94850.59;5043677;28;20231;-68
2022/04/09 02:00:20;;;;;;;0.30;0.30;;;;;;;4.41;96.03;94873.56;5044452;28;20884;-67
2022/04/09 02:02:47;;;;;;;0.30;0.30;;;;;;;4.37;96.64;94887.94;5044062;28;20202;-67
2022/04/09 02:05:15;;;;;;;0.53;0.37;;;;;;;4.48;96.53;94895.38;5045350;28;20208;-67
2022/04/09 02:07:42;;;;;;;0.40;0.40;;;;;;;4.79;96.05;94897.94;5043980;28;20544;-67
2022/04/09 02:10:10;;;;;;;0.50;0.50;;;;;;;4.71;94.84;94904.03;5043056;28;20197;-67
2022/04/09 02:12:37;;;;;;;0.63;0.60;;;;;;;4.86;95.46;94910.09;5043103;28;20657;-67
2022/04/09 02:15:08;;;;;;;0.70;0.50;;;;;;;4.77;95.09;94910.34;5042640;28;20669;-67
2022/04/09 02:17:35;;;;;;;0.73;0.60;;;;;;;4.52;95.07;94927.09;5042725;28;20317;-67
2022/04/09 02:20:01;;;;;;;2.73;0.60;;;;;;;4.78;93.82;94940.66;5042921;28;20204;-67
2022/04/09 02:22:34;;;;;;;0.70;0.50;;;;;;;4.88;94.53;94939.44;5043436;28;20267;-67
2022/04/09 02:25:00;;;;;;;0.30;0.30;;;;;;;4.53;94.88;94952.22;5043134;28;20579;-67
2022/04/09 02:27:27;;;;;;;0.30;0.30;;;;;;;4.52;94.02;94953.19;5043247;28;20240;-67
2022/04/09 02:29:53;;;;;;;0.33;0.30;;;;;;;4.43;94.74;94959.44;5043571;28;20205;-68
2022/04/09 02:32:21;;;;;;;0.33;0.33;;;;;;;4.48;95.04;94967.56;5042229;28;20215;-67
2022/04/09 02:34:49;;;;;;;0.40;0.40;;;;;;;4.32;96.20;94972.88;5043000;28;20204;-67
2022/04/09 02:37:16;;;;;;;1.10;0.60;;;;;;;4.50;96.35;94981.25;5043534;28;20740;-67
2022/04/09 02:39:43;;;;;;;0.57;0.57;;;;;;;4.36;96.22;94995.81;5039597;28;20205;-67
2022/04/09 02:42:10;;;;;;;0.30;0.30;;;;;;;4.36;96.40;95005.44;5043014;28;20197;-66
2022/04/09 02:44:37;;;;;;;0.70;0.60;;;;;;;4.49;95.89;95009.16;5043676;28;20209;-67
2022/04/09 02:47:03;;;;;;;0.40;0.40;;;;;;;4.65;95.86;95023.91;5043195;28;20220;-68
2022/04/09 02:49:31;;;;;;;0.50;0.50;;;;;;;4.61;95.53;95027.81;5042040;28;20213;-67
2022/04/09 02:51:58;;;;;;;0.60;0.60;;;;;;;4.36;95.80;95041.94;5042970;28;20207;-67
2022/04/09 02:54:24;;;;;;;0.60;0.60;;;;;;;4.24;96.07;95053.72;5042234;28;20200;-67
2022/04/09 02:56:51;;;;;;;0.67;0.67;;;;;;;4.46;95.46;95055.59;5042206;28;20235;-67
2022/04/09 02:59:18;;;;;;;0.50;0.50;;;;;;;4.26;96.10;95072.59;5042700;28;20212;-67
2022/04/09 03:01:46;;;;;;;0.60;0.53;;;;;;;4.27;96.44;95079.44;5043446;28;20219;-67
2022/04/09 03:04:13;;;;;;;1.00;0.90;;;;;;;4.19;96.31;95091.69;5042713;28;20308;-67
2022/04/09 03:06:41;;;;;;;0.60;0.60;;;;;;;4.50;96.57;95103.84;5042812;28;20220;-67
2022/04/09 03:09:08;;;;;;;1.00;0.77;;;;;;;4.36;95.97;95102.72;5043778;28;20904;-67
2022/04/09 03:11:34;;;;;;;1.60;0.93;;;;;;;4.25;95.63;95117.91;5043599;28;20205;-67
2022/04/09 03:14:01;;;;;;;1.33;0.87;;;;;;;4.35;95.19;95124.59;5042863;28;20209;-67
2022/04/09 03:16:27;;;;;;;1.20;0.73;;;;;;;4.25;94.39;95130.94;5042967;28;20235;-67
2022/04/09 03:18:54;;;;;;;0.90;0.60;;;;;;;4.35;94.47;95131.56;5043004;28;20208;-67
2022/04/09 03:21:20;;;;;;;0.87;0.80;;;;;;;4.26;94.76;95143.00;5042357;28;20204;-67
2022/04/09 03:23:48;;;;;;;1.90;1.00;;;;;;;4.26;95.34;95156.88;5042088;28;20201;-67
2022/04/09 03:26:15;;;;;;;1.13;0.70;;;;;;;4.38;93.92;95170.38;5041895;28;20231;-67
2022/04/09 03:28:41;;;;;;;1.03;0.83;;;;;;;4.50;93.54;95175.06;5042217;28;20220;-67
2022/04/09 03:31:09;;;;;;;0.97;0.77;;;;;;;4.57;93.06;95175.22;5042493;28;20205;-67
2022/04/09 03:33:35;;;;;;;3.63;1.10;;;;;;;4.09;93.05;95177.88;5041684;28;20690;-67
2022/04/09 03:36:02;;;;;;;0.73;0.73;;;;;;;4.30;92.89;95179.03;5043206;28;20225;-68
2022/04/09 03:38:29;;;;;;;1.67;1.00;;;;;;;4.12;93.97;95190.59;5041315;28;21020;-67
2022/04/09 03:40:56;;;;;;;1.00;0.80;;;;;;;4.40;93.60;95197.09;5042056;28;20213;-67
2022/04/09 03:43:23;;;;;;;0.73;0.73;;;;;;;4.06;94.05;95206.06;5040872;28;20209;-67
2022/04/09 03:45:49;;;;;;;2.37;1.07;;;;;;;4.01;94.21;95214.38;5040980;28;20839;-66
2022/04/09 03:48:16;;;;;;;2.67;1.53;;;;;;;3.97;94.42;95223.50;5041631;28;20193;-67
2022/04/09 03:50:42;;;;;;;2.23;1.47;;;;;;;3.98;93.18;95227.72;5043405;28;20216;-66
2022/04/09 03:53:08;;;;;;;0.77;0.77;;;;;;;4.04;93.45;95240.13;5041067;28;20200;-67
2022/04/09 03:55:35;;;;;;;1.07;0.90;;;;;;;3.95;93.62;95246.28;5041132;28;20906;-67
2022/04/09 03:58:03;;;;;;;0.70;0.70;;;;;;;4.12;93.22;95257.56;5040853;28;20204;-67
2022/04/09 04:00:29;;;;;;;1.77;1.23;;;;;;;4.09;93.38;95255.28;5041816;28;20205;-67
2022/04/09 04:02:57;;;;;;;2.93;1.33;;;;;;;3.97;93.41;95274.78;5041025;28;20209;-67
2022/04/09 04:05:23;;;;;;;2.57;1.50;;;;;;;3.94;94.25;95275.94;5041320;28;20268;-67
2022/04/09 04:07:50;;;;;;;1.90;1.53;;;;;;;4.06;93.22;95279.88;5041542;28;20220;-68
2022/04/09 04:10:16;;;;;;;3.60;1.40;;;;;;;4.02;93.61;95278.56;5040517;28;20212;-67
2022/04/09 04:12:43;;;;;;;4.13;2.27;;;;;;;4.07;93.33;95291.91;5040481;28;20205;-67
2022/04/09 04:15:13;;;;;;;3.53;1.90;;;;;;;4.24;92.94;95293.59;5041882;28;20245;-66
2022/04/09 04:17:41;;;;;;;1.20;0.90;;;;;;;4.23;93.55;95312.81;5040846;28;20264;-67
2022/04/09 04:20:09;;;;;;;2.80;1.40;;;;;;;4.36;93.27;95318.34;5040809;28;20205;-66
2022/04/09 04:22:35;;;;;;;2.20;1.57;;;;;;;4.11;93.88;95327.13;5039896;28;20197;-67
2022/04/09 04:25:02;;;;;;;2.97;1.93;;;;;;;4.15;93.09;95346.69;5040719;28;20197;-67
2022/04/09 04:27:28;;;;;;;1.10;0.90;;;;;;;4.19;93.54;95350.59;5040481;28;20234;-67
2022/04/09 04:29:58;;;;;;;1.37;1.07;;;;;;;4.30;93.57;95355.50;5040608;28;20464;-67
2022/04/09 04:32:26;;;;;;;1.20;0.87;;;;;;;4.31;93.85;95357.94;5040592;28;20213;-67
2022/04/09 04:34:53;;;;;;;1.50;1.23;;;;;;;4.14;94.11;95375.50;5041641;28;21110;-67
2022/04/09 04:37:20;;;;;;;3.57;1.47;;;;;;;4.12;94.35;95378.25;5040197;28;20236;-67
2022/04/09 04:39:47;;;;;;;3.20;1.70;;;;;;;4.20;94.20;95396.56;5040807;28;20209;-67
2022/04/09 04:42:13;;;;;;;2.20;1.23;;;;;;;4.15;94.11;95400.59;5039979;28;20205;-67
2022/04/09 04:44:40;;;;;;;1.07;0.80;;;;;;;4.02;93.78;95416.69;5041401;28;20208;-67
2022/04/09 04:47:06;;;;;;;0.97;0.60;;;;;;;4.17;94.03;95422.94;5041311;28;20217;-66
2022/04/09 04:49:34;;;;;;;0.77;0.77;;;;;;;4.09;93.81;95435.94;5041474;28;20217;-67
2022/04/09 04:52:01;;;;;;;2.60;1.37;;;;;;;4.18;92.79;95445.41;5040887;28;20204;-67
2022/04/09 04:54:27;;;;;;;2.17;0.90;;;;;;;4.15;93.88;95450.13;5038899;28;20209;-66
2022/04/09 04:56:53;;;;;;;1.83;1.13;;;;;;;4.16;93.41;95455.19;5039441;28;20236;-67
2022/04/09 04:59:20;;;;;;;4.23;2.07;;;;;;;4.54;92.99;95463.28;5040574;28;20201;-66
2022/04/09 05:01:46;;;;;;;3.20;2.03;;;;;;;4.45;92.57;95468.66;5041276;28;20201;-67
2022/04/09 05:04:13;;;;;;;4.90;2.30;;;;;;;4.39;93.31;95488.38;5040548;28;20205;-66
2022/04/09 05:06:40;;;;;;;10.67;3.33;;;;;;;4.71;93.26;95495.44;5040157;28;20217;-66
2022/04/09 05:09:07;;;;;;;4.77;1.47;;;;;;;4.07;94.92;95505.66;5038228;28;20197;-66
2022/04/09 05:11:33;;;;;;;3.73;1.67;;;;;;;4.19;94.61;95514.84;5039232;28;20201;-67
2022/04/09 05:14:00;;;;;;;2.33;1.37;;;;;;;4.25;94.50;95509.00;5037548;28;20197;-66
2022/04/09 05:16:26;;;;;;;4.77;2.60;;;;;;;4.15;93.73;95518.75;5038129;28;20236;-66
2022/04/09 05:18:52;;;;;;;5.87;2.67;;;;;;;4.59;93.39;95517.59;5038379;28;20213;-66
2022/04/09 05:21:19;;;;;;;3.80;2.63;;;;;;;4.55;93.14;95516.28;5039139;28;20209;-67
2022/04/09 05:23:47;;;;;;;5.57;3.33;;;;;;;4.64;93.07;95517.94;5039677;28;20218;-66
2022/04/09 05:26:13;;;;;;;7.23;3.03;;;;;;;4.50;93.40;95529.00;5039491;28;20225;-67
2022/04/09 05:28:40;;;;;;;4.40;3.23;;;;;;;4.64;93.00;95538.81;5041650;28;20662;-67
2022/04/09 05:31:09;;;;;;;5.57;3.37;;;;;;;4.34;92.51;95539.34;5039799;28;20636;-66
2022/04/09 05:33:35;;;;;;;4.27;2.33;;;;;;;4.40;92.98;95550.00;5037852;28;20201;-67
2022/04/09 05:36:02;;;;;;;4.73;2.33;;;;;;;4.26;92.54;95552.34;5037948;28;20225;-66
2022/04/09 05:38:30;;;;;;;4.50;2.73;;;;;;;4.39;93.41;95560.56;5037676;28;20229;-65
2022/04/09 05:40:58;;;;;;;6.53;3.40;;;;;;;4.71;93.71;95568.50;5039446;28;20664;-66
2022/04/09 05:43:24;;;;;;;7.23;3.73;;;;;;;4.57;92.88;95582.16;5039290;28;20586;-66
2022/04/09 05:45:51;;;;;;;11.63;3.50;;;;;;;4.52;91.92;95590.47;5038919;28;20231;-66
2022/04/09 05:48:18;;;;;;;3.73;2.47;;;;;;;4.55;91.84;95594.56;5039436;28;20688;-67
2022/04/09 05:50:44;;;;;;;4.83;2.80;;;;;;;4.43;92.48;95598.38;5038600;28;20200;-67
2022/04/09 05:53:10;;;;;;;7.87;3.20;;;;;;;4.37;93.69;95601.63;5037320;28;20722;-66
2022/04/09 05:55:37;;;;;;;5.37;3.37;;;;;;;4.22;94.12;95603.97;5038487;28;20201;-66
2022/04/09 05:58:05;;;;;;;9.30;4.53;;;;;;;4.65;94.23;95611.72;5040368;28;20235;-66
2022/04/09 06:00:32;;;;;;;13.83;5.33;;;;;;;4.60;94.33;95613.16;5040844;28;20211;-67
2022/04/09 06:02:59;;;;;;;6.10;3.50;;;;;;;4.35;93.06;95624.44;5040625;28;20201;-67
2022/04/09 06:05:26;;;;;;;6.70;3.73;;;;;;;4.65;93.13;95627.38;5040597;28;20204;-66
2022/04/09 06:07:53;;;;;;;16.40;5.10;;;;;;;4.66;92.92;95631.63;5040629;28;20225;-67
2022/04/09 06:10:19;;;;;;;7.20;4.27;;;;;;;4.74;92.37;95634.25;5042780;28;20545;-66
2022/04/09 06:12:46;;;;;;;9.07;4.80;;;;;;;4.81;92.22;95637.06;5043631;28;20216;-67
2022/04/09 06:15:14;;;;;;;8.80;4.13;;;;;;;4.86;91.38;95640.81;5044484;28;20685;-66
2022/04/09 06:17:41;;;;;;;6.73;3.33;;;;;;;4.95;90.64;95645.94;5043945;28;20231;-66
2022/04/09 06:20:08;;;;;;;7.83;3.67;;;;;;;5.09;90.41;95647.97;5045088;28;20205;-67
2022/04/09 06:22:35;;;;;;;12.63;4.93;;;;;;;4.93;90.99;95653.09;5042733;28;20204;-67
2022/04/09 06:25:02;;;;;;;9.47;5.40;;;;;;;5.16;89.49;95653.38;5044360;28;20201;-67
2022/04/09 06:27:28;;;;;;;8.87;3.63;;;;;;;4.66;89.41;95662.94;5043714;28;20257;-66
2022/04/09 06:29:55;;;;;;;6.27;3.50;;;;;;;4.77;89.45;95672.28;5043316;28;20268;-66
2022/04/09 06:32:23;;;;;;;8.90;4.40;;;;;;;5.08;89.00;95675.03;5043458;28;20209;-66
2022/04/09 06:34:49;;;;;;;16.23;4.90;;;;;;;4.97;89.42;95677.91;5045228;28;20708;-67
2022/04/09 06:37:15;;;;;;;13.37;4.13;;;;;;;4.92;89.15;95685.41;5043430;28;20239;-66
2022/04/09 06:39:42;;;;;;;7.50;3.43;;;;;;;5.11;89.25;95686.97;5043799;28;20254;-65
2022/04/09 06:42:08;;;;;;;8.03;4.43;;;;;;;4.97;89.28;95690.97;5044388;28;20212;-66
2022/04/09 06:44:35;;;;;;;6.97;3.03;;;;;;;5.06;89.79;95695.25;5043219;28;20247;-67
2022/04/09 06:47:01;;;;;;;11.83;3.70;;;;;;;4.98;88.75;95697.84;5044572;28;20275;-66
2022/04/09 06:49:29;;;;;;;5.27;3.00;;;;;;;5.42;88.15;95698.50;5043709;28;20216;-69
2022/04/09 06:51:55;;;;;;;5.17;2.80;;;;;;;5.14;88.82;95700.53;5043583;28;20205;-66
2022/04/09 06:54:22;;;;;;;7.17;3.43;;;;;;;5.13;88.02;95705.88;5043230;28;20212;-67
2022/04/09 06:56:48;;;;;;;7.30;3.43;;;;;;;5.36;88.55;95701.72;5044336;28;20228;-68
2022/04/09 06:59:15;;;;;;;5.23;2.40;;;;;;;5.56;87.31;95694.28;5044195;28;20232;-67
2022/04/09 07:01:41;;;;;;;8.50;4.07;;;;;;;5.91;86.91;95698.47;5044747;28;20231;-67
2022/04/09 07:04:08;;;;;;;4.40;2.17;;;;;;;5.67;83.66;95701.00;5043456;28;20212;-66
2022/04/09 07:06:36;;;;;;;6.83;3.33;;;;;;;5.83;84.86;95696.66;5043979;28;20693;-66
2022/04/09 07:09:02;;;;;;;1.70;1.53;;;;;;;5.60;84.61;95706.06;5044499;28;20205;-66
2022/04/09 07:11:28;;;;;;;4.83;3.23;;;;;;;5.65;83.75;95709.00;5045066;28;20296;-66
2022/04/09 07:13:55;;;;;;;7.03;2.97;;;;;;;5.68;82.80;95697.44;5044021;28;20572;-66
2022/04/09 07:16:21;;;;;;;4.00;2.43;;;;;;;5.80;82.89;95702.19;5043239;28;20630;-66
2022/04/09 07:18:48;;;;;;;4.47;2.03;;;;;;;5.73;82.97;95710.84;5041997;28;20221;-66
2022/04/09 07:21:14;;;;;;;3.10;2.20;;;;;;;5.82;83.31;95710.72;5042042;28;20216;-66
2022/04/09 07:23:42;;;;;;;5.20;3.27;;;;;;;6.27;80.46;95711.88;5042157;28;20247;-67
2022/04/09 07:26:09;;;;;;;9.00;4.17;;;;;;;5.90;80.11;95713.31;5043046;28;20410;-67
2022/04/09 07:28:35;;;;;;;4.27;2.30;;;;;;;5.55;79.93;95721.41;5042719;28;20205;-66
2022/04/09 07:31:01;;;;;;;1.83;1.53;;;;;;;5.46;81.18;95724.97;5042695;28;20570;-68
2022/04/09 07:33:28;;;;;;;2.80;1.93;;;;;;;5.69;80.69;95725.19;5042640;28;20216;-67
2022/04/09 07:35:54;;;;;;;3.17;1.83;;;;;;;5.66;81.78;95726.31;5043170;28;20209;-66
2022/04/09 07:38:21;;;;;;;8.80;2.47;;;;;;;5.82;82.05;95730.81;5042913;28;20243;-66
2022/04/09 07:40:49;;;;;;;4.50;2.40;;;;;;;6.15;82.53;95731.50;5044026;28;20202;-67
2022/04/09 07:43:15;;;;;;;2.77;1.50;;;;;;;6.23;79.71;95728.88;5042509;28;20197;-66
2022/04/09 07:45:41;;;;;;;3.57;1.93;;;;;;;6.47;80.39;95730.69;5043850;28;20202;-68
2022/04/09 07:48:11;;;;;;;6.30;2.23;;;;;;;6.64;80.47;95722.66;5042768;28;20205;-67
2022/04/09 07:50:37;;;;;;;6.97;3.03;;;;;;;6.89;78.55;95732.13;5043290;28;20201;-66
2022/04/09 07:53:04;;;;;;;3.17;2.37;;;;;;;7.24;79.83;95736.94;5042710;28;20575;-67
2022/04/09 07:55:31;;;;;;;6.03;2.87;;;;;;;7.12;77.35;95730.44;5041820;28;20206;-66
2022/04/09 07:57:59;;;;;;;5.20;2.87;;;;;;;7.16;77.08;95736.97;5042886;28;20506;-67
2022/04/09 08:00:26;;;;;;;3.87;2.03;;;;;;;6.53;75.57;95743.13;5042146;28;20633;-68
2022/04/09 08:02:52;;;;;;;2.23;1.40;;;;;;;5.96;73.01;95751.06;5042339;28;20213;-70
2022/04/09 08:05:19;;;;;;;20.63;3.20;;;;;;;5.91;75.06;95751.56;5041355;28;20396;-70
2022/04/09 08:07:47;;;;;;;2.43;1.57;;;;;;;6.44;74.20;95755.41;5042390;28;20224;-68
2022/04/09 08:10:14;;;;;;;4.30;1.50;;;;;;;6.30;74.73;95765.66;5044961;28;20210;-67
2022/04/09 08:12:41;;;;;;;2.97;1.97;;;;;;;6.19;75.45;95776.47;5044209;28;20209;-65
2022/04/09 08:15:10;;;;;;;5.30;1.23;;;;;;;6.33;74.29;95778.44;5044090;28;20624;-67
2022/04/09 08:17:38;;;;;;;3.70;2.17;;;;;;;6.07;73.96;95781.19;5042139;28;20231;-65
2022/04/09 08:20:05;;;;;;;3.43;1.60;;;;;;;5.92;73.87;95771.53;5041233;28;20205;-66
2022/04/09 08:22:32;;;;;;;2.10;1.33;;;;;;;5.80;73.66;95785.03;5040590;28;20228;-67
2022/04/09 08:24:59;;;;;;;2.97;1.43;;;;;;;5.81;73.98;95791.91;5040593;28;21067;-66
2022/04/09 08:27:25;;;;;;;7.17;1.93;;;;;;;6.26;73.77;95799.22;5041025;28;20713;-66
2022/04/09 08:29:52;;;;;;;7.00;2.50;;;;;;;6.24;73.69;95801.16;5042552;28;20205;-67
2022/04/09 08:32:20;;;;;;;2.77;1.90;;;;;;;6.56;73.44;95795.16;5040002;28;20201;-65
2022/04/09 08:34:46;;;;;;;2.70;1.63;;;;;;;6.40;72.87;95801.19;5041883;28;20205;-67
2022/04/09 08:37:13;;;;;;;2.83;1.53;;;;;;;6.44;73.95;95802.50;5040978;28;20227;-65
2022/04/09 08:39:39;;;;;;;3.53;2.03;;;;;;;6.48;72.43;95809.03;5040963;28;20205;-66
2022/04/09 08:42:06;;;;;;;9.33;2.33;;;;;;;6.47;71.63;95807.41;5041522;28;20201;-65
2022/04/09 08:44:35;;;;;;;4.03;2.10;;;;;;;6.30;70.18;95805.75;5041040;28;20209;-67
2022/04/09 08:47:02;;;;;;;3.53;1.80;;;;;;;6.46;71.18;95812.81;5042141;28;20631;-65
2022/04/09 08:49:34;;;;;;;4.20;2.07;;;;;;;6.42;70.79;95809.69;5043010;28;20201;-66
2022/04/09 08:52:01;;;;;;;2.97;1.70;;;;;;;6.30;73.21;95820.63;5043668;28;20201;-65
2022/04/09 08:54:28;;;;;;;3.50;1.90;;;;;;;6.05;74.05;95816.31;5042121;28;20211;-65
2022/04/09 08:56:54;;;;;;;3.17;1.40;;;;;;;6.16;72.73;95819.47;5042183;28;20926;-67
2022/04/09 08:59:21;;;;;;;1.17;0.93;;;;;;;6.11;72.56;95816.50;5043584;28;20220;-67
2022/04/09 09:01:47;;;;;;;2.87;1.43;;;;;;;5.79;72.46;95827.84;5042360;28;20535;-67
2022/04/09 09:04:14;;;;;;;1.90;1.30;;;;;;;6.12;73.79;95818.16;5042022;28;20269;-66
2022/04/09 09:06:45;;;;;;;1.33;0.80;;;;;;;6.66;71.73;95820.19;5042833;28;20717;-69
2022/04/09 09:09:26;;;;;;;2.00;1.60;;;;;;;6.88;71.06;95809.03;5043649;28;20204;-69
2022/04/09 09:11:53;;;;;;;6.07;1.30;;;;;;;6.58;70.48;95809.72;5042755;28;20606;-65
2022/04/09 09:14:27;;;;;;;3.20;1.07;;;;;;;7.17;69.16;95814.59;5042118;28;20216;-67
2022/04/09 09:16:55;;;;;;;2.13;1.70;;;;;;;6.82;67.93;95822.78;5042664;28;20247;-67
2022/04/09 09:19:22;;;;;;;1.60;0.97;;;;;;;6.48;66.70;95824.75;5041109;28;20256;-68
2022/04/09 09:21:55;;;;;;;2.17;1.50;;;;;;;6.99;68.19;95813.97;5042642;28;20263;-69
2022/04/09 09:24:22;;;;;;;1.87;1.27;;;;;;;6.86;67.99;95813.59;5041955;28;20205;-69
2022/04/09 09:26:58;;;;;;;1.63;1.27;;;;;;;6.94;66.73;95822.28;5041165;28;20224;-66
2022/04/09 09:29:27;;;;;;;4.87;1.97;;;;;;;6.73;67.78;95823.75;5041924;28;20292;-66
2022/04/09 09:31:54;;;;;;;4.53;1.20;;;;;;;6.87;69.58;95812.63;5042682;28;20223;-69
2022/04/09 09:34:21;;;;;;;3.97;1.40;;;;;;;7.14;68.96;95810.50;5041952;28;20205;-69
2022/04/09 09:36:49;;;;;;;2.40;1.57;;;;;;;7.54;67.81;95820.88;5042828;28;21111;-67
2022/04/09 09:39:19;;;;;;;0.83;0.83;;;;;;;7.40;68.25;95817.13;5041127;28;20221;-66
2022/04/09 09:41:50;;;;;;;1.80;1.10;;;;;;;7.19;65.97;95815.22;5041508;28;20728;-66
2022/04/09 09:44:18;;;;;;;6.10;0.73;;;;;;;6.67;68.21;95835.72;5040918;28;20219;-66
2022/04/09 09:46:46;;;;;;;4.60;2.00;;;;;;;6.73;67.18;95826.38;5045483;28;21094;-66
2022/04/09 09:49:13;;;;;;;1.30;1.20;;;;;;;6.95;66.97;95828.34;5045819;28;20201;-67
2022/04/09 09:51:39;;;;;;;4.97;1.83;;;;;;;6.70;67.49;95831.97;5046025;28;20749;-66
2022/04/09 09:54:07;;;;;;;1.30;0.97;;;;;;;7.12;66.46;95812.44;5044402;28;20209;-67
2022/04/09 09:56:37;;;;;;;1.23;1.10;;;;;;;7.49;67.79;95823.97;5045031;28;20472;-66
2022/04/09 09:59:06;;;;;;;0.87;0.83;;;;;;;7.40;63.96;95835.47;5044754;28;20399;-66
2022/04/09 10:01:35;;;;;;;1.67;0.90;;;;;;;7.60;62.92;95831.50;5044474;28;20233;-65
2022/04/09 10:04:03;;;;;;;2.00;1.27;;;;;;;7.31;64.03;95838.28;5044185;28;20197;-65
2022/04/09 10:06:30;;;;;;;3.70;0.70;;;;;;;7.00;63.30;95839.97;5044246;28;20503;-67
2022/04/09 10:08:58;;;;;;;5.37;0.97;;;;;;;7.15;63.34;95833.06;5044344;28;20229;-67
2022/04/09 10:11:26;;;;;;;1.17;0.83;;;;;;;7.02;63.57;95847.66;5044988;28;20212;-66
2022/04/09 10:13:56;;;;;;;13.10;2.00;;;;;;;7.37;64.47;95835.00;5044610;28;20209;-66
2022/04/09 10:16:26;;;;;;;1.57;1.20;;;;;;;7.13;64.38;95842.06;5045699;28;21290;-68
2022/04/09 10:18:59;;;;;;;3.03;1.27;;;;;;;7.54;64.96;95847.09;5045016;28;20652;-67
2022/04/09 10:21:27;;;;;;;4.63;0.83;;;;;;;7.25;61.61;95851.25;5045432;28;20221;-67
2022/04/09 10:23:55;;;;;;;2.77;1.07;;;;;;;6.95;63.16;95849.28;5045123;28;20208;-67
2022/04/09 10:26:22;;;;;;;0.77;0.77;;;;;;;7.20;64.94;95849.09;5044865;28;20220;-67
2022/04/09 10:28:50;;;;;;;3.40;1.27;;;;;;;7.28;63.95;95851.75;5044541;28;20209;-66
2022/04/09 10:31:38;;;;;;;1.47;1.13;;;;;;;7.61;62.32;95854.13;5046250;28;20197;-67
2022/04/09 10:34:07;;;;;;;2.13;1.60;;;;;;;8.06;64.84;95854.28;5045632;28;20197;-67
2022/04/09 10:37:02;;;;;;;2.10;1.00;;;;;;;8.10;64.34;95850.31;5045740;28;20217;-67
2022/04/09 10:39:36;;;;;;;7.40;2.03;;;;;;;8.06;65.27;95856.91;5044429;28;20340;-67
2022/04/09 10:42:03;;;;;;;8.63;1.97;;;;;;;7.86;62.86;95863.53;5044442;28;20215;-66
2022/04/09 10:44:52;;;;;;;6.30;3.03;;;;;;;7.76;62.52;95856.84;5045248;28;20216;-67
2022/04/09 10:47:20;;;;;;;2.27;1.27;;;;;;;8.25;63.96;95859.13;5045104;28;20326;-68
2022/04/09 10:50:12;;;;;;;1.63;0.97;;;;;;;8.24;62.11;95868.00;5044457;28;20194;-67
2022/04/09 10:52:40;;;;;;;5.13;1.40;;;;;;;7.76;62.99;95862.91;5044491;28;20288;-66
2022/04/09 10:55:33;;;;;;;0.83;0.80;;;;;;;8.03;63.83;95859.84;5044983;28;20225;-67
2022/04/09 10:58:04;;;;;;;6.20;2.50;;;;;;;7.89;64.32;95860.56;5044633;28;20221;-67
2022/04/09 11:00:33;;;;;;;6.67;1.87;;;;;;;7.86;63.91;95865.34;5044861;28;20209;-68
2022/04/09 11:03:34;;;;;;;1.27;1.17;;;;;;;7.66;62.90;95859.69;5044012;28;20251;-66
2022/04/09 11:06:43;;;;;;;3.33;0.90;;;;;;;7.35;62.71;95868.41;5044226;28;20233;-67
2022/04/09 11:09:09;;;;;;;3.80;1.70;;;;;;;7.04;64.19;95871.88;5043842;28;20284;-66
2022/04/09 11:11:37;;;;;;;6.07;1.20;;;;;;;7.23;64.00;95869.75;5044663;28;20205;-67
2022/04/09 11:14:03;;;;;;;3.10;1.30;;;;;;;7.45;65.64;95877.72;5043914;28;20239;-67
2022/04/09 11:16:34;;;;;;;6.23;1.33;;;;;;;7.96;65.73;95864.97;5044343;28;20225;-67
2022/04/09 11:19:02;;;;;;;2.77;1.10;;;;;;;8.40;64.66;95867.91;5043900;28;20308;-66
2022/04/09 11:21:30;;;;;;;2.20;1.20;;;;;;;8.59;63.87;95873.53;5043378;28;20295;-66
2022/04/09 11:24:08;;;;;;;3.40;1.60;;;;;;;9.29;64.03;95867.91;5043027;28;20204;-67
2022/04/09 11:26:34;;;;;;;1.23;0.90;;;;;;;9.41;58.42;95871.75;5042976;28;20227;-68
2022/04/09 11:29:09;;;;;;;5.17;1.37;;;;;;;9.75;57.70;95868.44;5042776;28;20205;-67
2022/04/09 11:31:45;;;;;;;5.00;0.90;;;;;;;9.97;57.78;95867.56;5042455;28;20208;-67
2022/04/09 11:34:13;;;;;;;1.33;0.80;;;;;;;9.34;55.14;95873.44;5042718;28;20209;-67
2022/04/09 11:36:40;;;;;;;0.60;0.60;;;;;;;8.99;54.68;95878.53;5042868;28;20263;-67
2022/04/09 11:39:06;;;;;;;3.53;1.43;;;;;;;8.56;57.48;95879.94;5043533;28;20229;-68
2022/04/09 11:41:33;;;;;;;10.23;1.97;;;;;;;8.48;55.94;95880.00;5043458;28;20201;-67
2022/04/09 11:44:00;;;;;;;1.10;1.00;;;;;;;8.44;58.19;95880.53;5042470;28;20209;-67
2022/04/09 11:46:31;;;;;;;4.43;1.30;;;;;;;8.47;59.20;95890.66;5043489;28;20228;-67